sensor_id;sensor_type;location;lat;lon;timestamp;P1;durP1;ratioP1;P2;durP2;ratioP2
62050;SDS011;48008;51.204;6.766;2023-01-01T00:01:40;35.78;;;14.13;;
62050;SDS011;48008;51.204;6.766;2023-01-01T00:04:10;60.83;;;17.00;;
62050;SDS011;48008;51.204;6.766;2023-01-01T00:06:39;47.35;;;17.98;;
62050;SDS011;48008;51.204;6.766;2023-01-01T00:09:06;54.55;;;19.90;;
62050;SDS011;48008;51.204;6.766;2023-01-01T00:11:54;71.53;;;30.50;;
62050;SDS011;48008;51.204;6.766;2023-01-01T00:14:21;91.18;;;41.38;;
62050;SDS011;48008;51.204;6.766;2023-01-01T00:16:48;95.65;;;43.55;;
62050;SDS011;48008;51.204;6.766;2023-01-01T00:19:16;133.93;;;48.30;;
62050;SDS011;48008;51.204;6.766;2023-01-01T00:21:43;88.82;;;42.80;;
62050;SDS011;48008;51.204;6.766;2023-01-01T00:24:12;94.45;;;43.83;;
62050;SDS011;48008;51.204;6.766;2023-01-01T00:26:39;90.90;;;43.78;;
62050;SDS011;48008;51.204;6.766;2023-01-01T00:29:06;95.25;;;43.67;;
62050;SDS011;48008;51.204;6.766;2023-01-01T00:31:33;78.78;;;38.80;;
62050;SDS011;48008;51.204;6.766;2023-01-01T00:34:01;73.38;;;33.13;;
62050;SDS011;48008;51.204;6.766;2023-01-01T00:36:28;68.28;;;30.15;;
62050;SDS011;48008;51.204;6.766;2023-01-01T00:38:56;58.75;;;24.35;;
62050;SDS011;48008;51.204;6.766;2023-01-01T00:41:24;50.10;;;20.98;;
62050;SDS011;48008;51.204;6.766;2023-01-01T00:43:51;36.72;;;16.55;;
62050;SDS011;48008;51.204;6.766;2023-01-01T00:46:18;35.58;;;13.75;;
62050;SDS011;48008;51.204;6.766;2023-01-01T00:48:46;38.13;;;11.50;;
62050;SDS011;48008;51.204;6.766;2023-01-01T00:51:13;23.13;;;9.05;;
62050;SDS011;48008;51.204;6.766;2023-01-01T00:53:40;26.15;;;9.07;;
62050;SDS011;48008;51.204;6.766;2023-01-01T00:56:07;22.10;;;8.20;;
62050;SDS011;48008;51.204;6.766;2023-01-01T00:58:34;21.38;;;7.45;;
62050;SDS011;48008;51.204;6.766;2023-01-01T01:01:02;23.05;;;7.35;;
62050;SDS011;48008;51.204;6.766;2023-01-01T01:03:29;31.38;;;7.40;;
62050;SDS011;48008;51.204;6.766;2023-01-01T01:05:57;21.00;;;6.50;;
62050;SDS011;48008;51.204;6.766;2023-01-01T01:08:35;25.75;;;6.40;;
62050;SDS011;48008;51.204;6.766;2023-01-01T01:11:05;18.90;;;6.05;;
62050;SDS011;48008;51.204;6.766;2023-01-01T01:13:37;25.65;;;6.25;;
62050;SDS011;48008;51.204;6.766;2023-01-01T01:16:13;21.38;;;5.53;;
62050;SDS011;48008;51.204;6.766;2023-01-01T01:18:43;18.70;;;5.47;;
62050;SDS011;48008;51.204;6.766;2023-01-01T01:21:15;13.43;;;4.80;;
62050;SDS011;48008;51.204;6.766;2023-01-01T01:23:44;20.25;;;4.70;;
62050;SDS011;48008;51.204;6.766;2023-01-01T01:26:12;21.42;;;5.60;;
62050;SDS011;48008;51.204;6.766;2023-01-01T01:28:42;19.25;;;4.85;;
62050;SDS011;48008;51.204;6.766;2023-01-01T01:31:14;21.45;;;4.30;;
62050;SDS011;48008;51.204;6.766;2023-01-01T01:33:43;12.90;;;3.83;;
62050;SDS011;48008;51.204;6.766;2023-01-01T01:36:11;13.05;;;3.90;;
62050;SDS011;48008;51.204;6.766;2023-01-01T01:38:39;18.30;;;3.90;;
62050;SDS011;48008;51.204;6.766;2023-01-01T01:41:07;11.27;;;3.35;;
62050;SDS011;48008;51.204;6.766;2023-01-01T01:46:16;12.18;;;3.67;;
62050;SDS011;48008;51.204;6.766;2023-01-01T01:48:55;13.90;;;3.70;;
62050;SDS011;48008;51.204;6.766;2023-01-01T01:51:26;17.33;;;5.45;;
62050;SDS011;48008;51.204;6.766;2023-01-01T01:53:59;12.98;;;3.30;;
62050;SDS011;48008;51.204;6.766;2023-01-01T01:59:05;11.43;;;3.20;;
62050;SDS011;48008;51.204;6.766;2023-01-01T02:01:32;12.77;;;3.30;;
62050;SDS011;48008;51.204;6.766;2023-01-01T02:03:59;12.13;;;3.00;;
62050;SDS011;48008;51.204;6.766;2023-01-01T02:06:29;12.52;;;3.42;;
62050;SDS011;48008;51.204;6.766;2023-01-01T02:08:58;14.20;;;3.35;;
62050;SDS011;48008;51.204;6.766;2023-01-01T02:11:27;16.17;;;3.90;;
62050;SDS011;48008;51.204;6.766;2023-01-01T02:13:54;16.73;;;3.45;;
62050;SDS011;48008;51.204;6.766;2023-01-01T02:19:18;10.75;;;2.95;;
62050;SDS011;48008;51.204;6.766;2023-01-01T02:22:14;9.45;;;3.30;;
62050;SDS011;48008;51.204;6.766;2023-01-01T02:24:54;9.52;;;3.17;;
62050;SDS011;48008;51.204;6.766;2023-01-01T02:27:37;12.67;;;4.40;;
62050;SDS011;48008;51.204;6.766;2023-01-01T02:30:14;13.55;;;3.10;;
62050;SDS011;48008;51.204;6.766;2023-01-01T02:32:43;12.27;;;2.92;;
62050;SDS011;48008;51.204;6.766;2023-01-01T02:35:18;14.55;;;3.20;;
62050;SDS011;48008;51.204;6.766;2023-01-01T02:38:02;17.90;;;3.38;;
62050;SDS011;48008;51.204;6.766;2023-01-01T02:40:35;16.35;;;3.15;;
62050;SDS011;48008;51.204;6.766;2023-01-01T02:43:07;11.35;;;2.83;;
62050;SDS011;48008;51.204;6.766;2023-01-01T02:45:34;10.23;;;3.05;;
62050;SDS011;48008;51.204;6.766;2023-01-01T02:48:03;13.30;;;3.05;;
62050;SDS011;48008;51.204;6.766;2023-01-01T02:50:31;10.15;;;3.00;;
62050;SDS011;48008;51.204;6.766;2023-01-01T02:53:05;8.88;;;3.47;;
62050;SDS011;48008;51.204;6.766;2023-01-01T02:55:46;11.00;;;2.80;;
62050;SDS011;48008;51.204;6.766;2023-01-01T02:58:51;12.40;;;2.67;;
62050;SDS011;48008;51.204;6.766;2023-01-01T03:01:47;9.80;;;2.60;;
62050;SDS011;48008;51.204;6.766;2023-01-01T03:04:30;10.88;;;2.60;;
62050;SDS011;48008;51.204;6.766;2023-01-01T03:07:12;11.98;;;2.75;;
62050;SDS011;48008;51.204;6.766;2023-01-01T03:09:55;13.10;;;3.00;;
62050;SDS011;48008;51.204;6.766;2023-01-01T03:12:31;9.05;;;2.50;;
62050;SDS011;48008;51.204;6.766;2023-01-01T03:15:11;10.23;;;3.05;;
62050;SDS011;48008;51.204;6.766;2023-01-01T03:18:07;12.55;;;2.60;;
62050;SDS011;48008;51.204;6.766;2023-01-01T03:20:44;9.30;;;2.65;;
62050;SDS011;48008;51.204;6.766;2023-01-01T03:23:17;12.32;;;2.60;;
62050;SDS011;48008;51.204;6.766;2023-01-01T03:25:49;13.75;;;2.60;;
62050;SDS011;48008;51.204;6.766;2023-01-01T03:28:21;9.15;;;2.58;;
62050;SDS011;48008;51.204;6.766;2023-01-01T03:30:53;12.32;;;2.60;;
62050;SDS011;48008;51.204;6.766;2023-01-01T03:33:23;10.85;;;2.75;;
62050;SDS011;48008;51.204;6.766;2023-01-01T03:36:05;13.55;;;2.78;;
62050;SDS011;48008;51.204;6.766;2023-01-01T03:38:39;10.77;;;2.55;;
62050;SDS011;48008;51.204;6.766;2023-01-01T03:41:20;11.05;;;2.28;;
62050;SDS011;48008;51.204;6.766;2023-01-01T03:44:00;9.60;;;2.72;;
62050;SDS011;48008;51.204;6.766;2023-01-01T03:46:32;9.40;;;2.50;;
62050;SDS011;48008;51.204;6.766;2023-01-01T03:49:01;7.65;;;2.30;;
62050;SDS011;48008;51.204;6.766;2023-01-01T03:57:41;14.98;;;2.45;;
62050;SDS011;48008;51.204;6.766;2023-01-01T04:00:22;8.35;;;2.00;;
62050;SDS011;48008;51.204;6.766;2023-01-01T04:02:55;10.88;;;2.60;;
62050;SDS011;48008;51.204;6.766;2023-01-01T04:05:24;6.75;;;2.78;;
62050;SDS011;48008;51.204;6.766;2023-01-01T04:07:53;10.95;;;2.58;;
62050;SDS011;48008;51.204;6.766;2023-01-01T04:10:21;15.02;;;2.58;;
62050;SDS011;48008;51.204;6.766;2023-01-01T04:12:55;12.32;;;2.58;;
62050;SDS011;48008;51.204;6.766;2023-01-01T04:15:24;8.73;;;2.30;;
62050;SDS011;48008;51.204;6.766;2023-01-01T04:17:52;12.68;;;2.60;;
62050;SDS011;48008;51.204;6.766;2023-01-01T04:20:20;9.43;;;2.50;;
62050;SDS011;48008;51.204;6.766;2023-01-01T04:22:47;10.77;;;2.60;;
62050;SDS011;48008;51.204;6.766;2023-01-01T04:25:15;9.20;;;2.28;;
62050;SDS011;48008;51.204;6.766;2023-01-01T04:27:42;9.30;;;2.53;;
62050;SDS011;48008;51.204;6.766;2023-01-01T04:30:10;13.38;;;2.70;;
62050;SDS011;48008;51.204;6.766;2023-01-01T04:32:38;11.15;;;2.50;;
62050;SDS011;48008;51.204;6.766;2023-01-01T04:35:06;12.25;;;3.20;;
62050;SDS011;48008;51.204;6.766;2023-01-01T04:37:35;8.32;;;2.15;;
62050;SDS011;48008;51.204;6.766;2023-01-01T04:40:02;14.85;;;2.75;;
62050;SDS011;48008;51.204;6.766;2023-01-01T04:42:29;10.85;;;2.50;;
62050;SDS011;48008;51.204;6.766;2023-01-01T04:44:56;9.40;;;2.50;;
62050;SDS011;48008;51.204;6.766;2023-01-01T04:47:23;13.32;;;2.67;;
62050;SDS011;48008;51.204;6.766;2023-01-01T04:49:52;13.98;;;2.60;;
62050;SDS011;48008;51.204;6.766;2023-01-01T04:52:19;14.23;;;2.60;;
62050;SDS011;48008;51.204;6.766;2023-01-01T04:54:46;7.05;;;2.28;;
62050;SDS011;48008;51.204;6.766;2023-01-01T04:57:12;10.65;;;2.47;;
62050;SDS011;48008;51.204;6.766;2023-01-01T04:59:40;9.13;;;2.50;;
62050;SDS011;48008;51.204;6.766;2023-01-01T05:02:07;9.95;;;2.72;;
62050;SDS011;48008;51.204;6.766;2023-01-01T05:04:33;10.60;;;2.47;;
62050;SDS011;48008;51.204;6.766;2023-01-01T05:07:00;10.23;;;2.42;;
62050;SDS011;48008;51.204;6.766;2023-01-01T05:09:27;12.43;;;2.65;;
62050;SDS011;48008;51.204;6.766;2023-01-01T05:11:54;10.93;;;2.47;;
62050;SDS011;48008;51.204;6.766;2023-01-01T05:14:21;11.55;;;2.55;;
62050;SDS011;48008;51.204;6.766;2023-01-01T05:16:48;8.45;;;2.72;;
62050;SDS011;48008;51.204;6.766;2023-01-01T05:19:15;9.95;;;2.30;;
62050;SDS011;48008;51.204;6.766;2023-01-01T05:21:41;9.55;;;2.63;;
62050;SDS011;48008;51.204;6.766;2023-01-01T05:24:08;8.38;;;2.30;;
62050;SDS011;48008;51.204;6.766;2023-01-01T05:26:37;9.45;;;2.40;;
62050;SDS011;48008;51.204;6.766;2023-01-01T05:29:06;11.35;;;2.80;;
62050;SDS011;48008;51.204;6.766;2023-01-01T05:31:39;14.40;;;2.20;;
62050;SDS011;48008;51.204;6.766;2023-01-01T05:34:05;10.05;;;2.40;;
62050;SDS011;48008;51.204;6.766;2023-01-01T05:36:32;19.77;;;2.97;;
62050;SDS011;48008;51.204;6.766;2023-01-01T05:39:04;8.45;;;2.13;;
62050;SDS011;48008;51.204;6.766;2023-01-01T05:41:32;11.73;;;2.63;;
62050;SDS011;48008;51.204;6.766;2023-01-01T05:44:02;10.13;;;2.35;;
62050;SDS011;48008;51.204;6.766;2023-01-01T05:46:30;9.00;;;2.53;;
62050;SDS011;48008;51.204;6.766;2023-01-01T05:48:57;11.40;;;2.40;;
62050;SDS011;48008;51.204;6.766;2023-01-01T05:51:25;12.73;;;2.40;;
62050;SDS011;48008;51.204;6.766;2023-01-01T05:53:53;11.82;;;2.75;;
62050;SDS011;48008;51.204;6.766;2023-01-01T05:56:20;8.88;;;2.90;;
62050;SDS011;48008;51.204;6.766;2023-01-01T05:58:47;12.55;;;2.38;;
62050;SDS011;48008;51.204;6.766;2023-01-01T06:01:17;11.30;;;2.33;;
62050;SDS011;48008;51.204;6.766;2023-01-01T06:03:46;12.85;;;2.90;;
62050;SDS011;48008;51.204;6.766;2023-01-01T06:06:16;13.40;;;2.60;;
62050;SDS011;48008;51.204;6.766;2023-01-01T06:08:49;14.15;;;2.75;;
62050;SDS011;48008;51.204;6.766;2023-01-01T06:11:17;13.23;;;2.55;;
62050;SDS011;48008;51.204;6.766;2023-01-01T06:13:45;11.30;;;2.60;;
62050;SDS011;48008;51.204;6.766;2023-01-01T06:16:12;10.35;;;2.42;;
62050;SDS011;48008;51.204;6.766;2023-01-01T06:18:40;15.38;;;3.50;;
62050;SDS011;48008;51.204;6.766;2023-01-01T06:21:08;10.23;;;2.30;;
62050;SDS011;48008;51.204;6.766;2023-01-01T06:23:37;6.65;;;2.20;;
62050;SDS011;48008;51.204;6.766;2023-01-01T06:26:07;10.43;;;2.40;;
62050;SDS011;48008;51.204;6.766;2023-01-01T06:28:39;12.13;;;2.63;;
62050;SDS011;48008;51.204;6.766;2023-01-01T06:31:07;15.10;;;2.55;;
62050;SDS011;48008;51.204;6.766;2023-01-01T06:33:36;14.27;;;2.83;;
62050;SDS011;48008;51.204;6.766;2023-01-01T06:36:05;13.35;;;2.47;;
62050;SDS011;48008;51.204;6.766;2023-01-01T06:38:34;22.05;;;2.92;;
62050;SDS011;48008;51.204;6.766;2023-01-01T06:41:06;10.25;;;2.30;;
62050;SDS011;48008;51.204;6.766;2023-01-01T06:43:36;13.93;;;2.38;;
62050;SDS011;48008;51.204;6.766;2023-01-01T06:46:19;12.52;;;2.53;;
62050;SDS011;48008;51.204;6.766;2023-01-01T06:48:48;13.90;;;2.67;;
62050;SDS011;48008;51.204;6.766;2023-01-01T06:51:19;10.30;;;2.38;;
62050;SDS011;48008;51.204;6.766;2023-01-01T06:53:47;13.10;;;2.95;;
62050;SDS011;48008;51.204;6.766;2023-01-01T06:56:15;9.73;;;2.30;;
62050;SDS011;48008;51.204;6.766;2023-01-01T06:58:42;9.45;;;2.45;;
62050;SDS011;48008;51.204;6.766;2023-01-01T07:01:10;10.98;;;2.60;;
62050;SDS011;48008;51.204;6.766;2023-01-01T07:03:40;8.63;;;2.50;;
62050;SDS011;48008;51.204;6.766;2023-01-01T07:06:07;10.80;;;3.30;;
62050;SDS011;48008;51.204;6.766;2023-01-01T07:08:34;15.40;;;2.72;;
62050;SDS011;48008;51.204;6.766;2023-01-01T07:11:02;10.45;;;2.60;;
62050;SDS011;48008;51.204;6.766;2023-01-01T07:13:29;12.27;;;2.67;;
62050;SDS011;48008;51.204;6.766;2023-01-01T07:15:58;10.30;;;2.67;;
62050;SDS011;48008;51.204;6.766;2023-01-01T07:18:25;7.82;;;2.60;;
62050;SDS011;48008;51.204;6.766;2023-01-01T07:20:52;13.18;;;2.88;;
62050;SDS011;48008;51.204;6.766;2023-01-01T07:23:21;14.88;;;2.85;;
62050;SDS011;48008;51.204;6.766;2023-01-01T07:25:48;10.05;;;2.70;;
62050;SDS011;48008;51.204;6.766;2023-01-01T07:28:16;13.13;;;3.00;;
62050;SDS011;48008;51.204;6.766;2023-01-01T07:30:44;14.55;;;2.97;;
62050;SDS011;48008;51.204;6.766;2023-01-01T07:33:12;10.43;;;3.05;;
62050;SDS011;48008;51.204;6.766;2023-01-01T07:35:41;11.52;;;2.72;;
62050;SDS011;48008;51.204;6.766;2023-01-01T07:38:10;14.18;;;3.03;;
62050;SDS011;48008;51.204;6.766;2023-01-01T07:40:37;10.52;;;2.63;;
62050;SDS011;48008;51.204;6.766;2023-01-01T07:43:06;9.57;;;2.80;;
62050;SDS011;48008;51.204;6.766;2023-01-01T07:45:33;10.40;;;2.80;;
62050;SDS011;48008;51.204;6.766;2023-01-01T07:48:00;13.48;;;3.17;;
62050;SDS011;48008;51.204;6.766;2023-01-01T07:50:29;12.65;;;2.97;;
62050;SDS011;48008;51.204;6.766;2023-01-01T07:52:57;12.63;;;2.78;;
62050;SDS011;48008;51.204;6.766;2023-01-01T07:55:24;12.73;;;2.65;;
62050;SDS011;48008;51.204;6.766;2023-01-01T07:57:51;16.77;;;3.25;;
62050;SDS011;48008;51.204;6.766;2023-01-01T08:00:19;10.07;;;3.13;;
62050;SDS011;48008;51.204;6.766;2023-01-01T08:02:47;11.57;;;3.00;;
62050;SDS011;48008;51.204;6.766;2023-01-01T08:05:14;14.57;;;3.03;;
62050;SDS011;48008;51.204;6.766;2023-01-01T08:07:46;14.48;;;2.88;;
62050;SDS011;48008;51.204;6.766;2023-01-01T08:10:14;20.10;;;2.92;;
62050;SDS011;48008;51.204;6.766;2023-01-01T08:12:43;14.90;;;3.47;;
62050;SDS011;48008;51.204;6.766;2023-01-01T08:15:10;17.20;;;4.35;;
62050;SDS011;48008;51.204;6.766;2023-01-01T08:17:37;16.92;;;3.65;;
62050;SDS011;48008;51.204;6.766;2023-01-01T08:20:08;13.20;;;3.28;;
62050;SDS011;48008;51.204;6.766;2023-01-01T08:22:35;16.25;;;3.03;;
62050;SDS011;48008;51.204;6.766;2023-01-01T08:25:02;11.25;;;3.22;;
62050;SDS011;48008;51.204;6.766;2023-01-01T08:27:29;12.35;;;3.03;;
62050;SDS011;48008;51.204;6.766;2023-01-01T08:29:55;17.25;;;3.60;;
62050;SDS011;48008;51.204;6.766;2023-01-01T08:32:23;17.35;;;3.33;;
62050;SDS011;48008;51.204;6.766;2023-01-01T08:34:50;24.20;;;3.20;;
62050;SDS011;48008;51.204;6.766;2023-01-01T08:37:16;15.77;;;3.13;;
62050;SDS011;48008;51.204;6.766;2023-01-01T08:39:48;12.88;;;3.33;;
62050;SDS011;48008;51.204;6.766;2023-01-01T08:42:15;14.25;;;3.28;;
62050;SDS011;48008;51.204;6.766;2023-01-01T08:44:43;13.25;;;3.40;;
62050;SDS011;48008;51.204;6.766;2023-01-01T08:47:25;23.20;;;3.80;;
62050;SDS011;48008;51.204;6.766;2023-01-01T08:49:52;22.02;;;3.42;;
62050;SDS011;48008;51.204;6.766;2023-01-01T08:52:19;12.98;;;3.67;;
62050;SDS011;48008;51.204;6.766;2023-01-01T08:54:46;14.27;;;3.50;;
62050;SDS011;48008;51.204;6.766;2023-01-01T08:57:13;15.80;;;3.78;;
62050;SDS011;48008;51.204;6.766;2023-01-01T08:59:40;16.45;;;3.28;;
62050;SDS011;48008;51.204;6.766;2023-01-01T09:02:07;18.08;;;3.47;;
62050;SDS011;48008;51.204;6.766;2023-01-01T09:04:33;18.10;;;3.40;;
62050;SDS011;48008;51.204;6.766;2023-01-01T09:07:00;14.88;;;3.00;;
62050;SDS011;48008;51.204;6.766;2023-01-01T09:09:27;15.98;;;3.67;;
62050;SDS011;48008;51.204;6.766;2023-01-01T09:11:57;16.75;;;3.08;;
62050;SDS011;48008;51.204;6.766;2023-01-01T09:14:29;14.48;;;3.17;;
62050;SDS011;48008;51.204;6.766;2023-01-01T09:16:56;13.98;;;3.38;;
62050;SDS011;48008;51.204;6.766;2023-01-01T09:19:23;20.20;;;3.47;;
62050;SDS011;48008;51.204;6.766;2023-01-01T09:21:49;12.70;;;3.10;;
62050;SDS011;48008;51.204;6.766;2023-01-01T09:24:18;15.18;;;3.05;;
62050;SDS011;48008;51.204;6.766;2023-01-01T09:26:45;13.45;;;3.47;;
62050;SDS011;48008;51.204;6.766;2023-01-01T09:29:12;15.05;;;3.00;;
62050;SDS011;48008;51.204;6.766;2023-01-01T09:31:38;12.70;;;3.38;;
62050;SDS011;48008;51.204;6.766;2023-01-01T09:34:05;16.27;;;3.28;;
62050;SDS011;48008;51.204;6.766;2023-01-01T09:36:32;11.27;;;3.08;;
62050;SDS011;48008;51.204;6.766;2023-01-01T09:38:59;9.77;;;2.70;;
62050;SDS011;48008;51.204;6.766;2023-01-01T09:46:57;19.38;;;3.42;;
62050;SDS011;48008;51.204;6.766;2023-01-01T09:51:59;15.32;;;3.22;;
62050;SDS011;48008;51.204;6.766;2023-01-01T09:55:02;16.52;;;3.30;;
62050;SDS011;48008;51.204;6.766;2023-01-01T09:57:28;10.02;;;3.20;;
62050;SDS011;48008;51.204;6.766;2023-01-01T09:59:57;16.40;;;3.43;;
62050;SDS011;48008;51.204;6.766;2023-01-01T10:02:43;19.25;;;3.05;;
62050;SDS011;48008;51.204;6.766;2023-01-01T10:05:26;17.75;;;3.30;;
62050;SDS011;48008;51.204;6.766;2023-01-01T10:08:14;11.90;;;3.50;;
62050;SDS011;48008;51.204;6.766;2023-01-01T10:10:52;12.00;;;3.17;;
62050;SDS011;48008;51.204;6.766;2023-01-01T10:13:42;11.80;;;3.58;;
62050;SDS011;48008;51.204;6.766;2023-01-01T10:16:29;14.70;;;2.92;;
62050;SDS011;48008;51.204;6.766;2023-01-01T10:19:33;13.15;;;2.90;;
62050;SDS011;48008;51.204;6.766;2023-01-01T10:21:51;15.70;;;3.17;;
62050;SDS011;48008;51.204;6.766;2023-01-01T10:24:32;14.00;;;3.08;;
62050;SDS011;48008;51.204;6.766;2023-01-01T10:27:23;12.57;;;3.15;;
62050;SDS011;48008;51.204;6.766;2023-01-01T10:30:14;17.73;;;3.10;;
62050;SDS011;48008;51.204;6.766;2023-01-01T10:32:46;19.00;;;3.30;;
62050;SDS011;48008;51.204;6.766;2023-01-01T10:35:15;20.05;;;3.47;;
62050;SDS011;48008;51.204;6.766;2023-01-01T10:37:50;17.38;;;3.30;;
62050;SDS011;48008;51.204;6.766;2023-01-01T10:40:18;10.60;;;2.88;;
62050;SDS011;48008;51.204;6.766;2023-01-01T10:42:48;16.77;;;3.90;;
62050;SDS011;48008;51.204;6.766;2023-01-01T10:45:17;13.13;;;3.85;;
62050;SDS011;48008;51.204;6.766;2023-01-01T10:51:05;14.43;;;2.95;;
62050;SDS011;48008;51.204;6.766;2023-01-01T10:53:35;19.95;;;3.38;;
62050;SDS011;48008;51.204;6.766;2023-01-01T10:56:10;14.52;;;3.08;;
62050;SDS011;48008;51.204;6.766;2023-01-01T10:58:48;17.48;;;3.10;;
62050;SDS011;48008;51.204;6.766;2023-01-01T11:01:25;12.65;;;2.83;;
62050;SDS011;48008;51.204;6.766;2023-01-01T11:03:57;13.23;;;3.10;;
62050;SDS011;48008;51.204;6.766;2023-01-01T11:06:32;14.52;;;3.20;;
62050;SDS011;48008;51.204;6.766;2023-01-01T11:09:02;13.30;;;3.20;;
62050;SDS011;48008;51.204;6.766;2023-01-01T11:11:47;13.63;;;2.77;;
62050;SDS011;48008;51.204;6.766;2023-01-01T11:14:24;12.27;;;2.90;;
62050;SDS011;48008;51.204;6.766;2023-01-01T11:16:59;12.32;;;2.53;;
62050;SDS011;48008;51.204;6.766;2023-01-01T11:19:27;16.48;;;3.22;;
62050;SDS011;48008;51.204;6.766;2023-01-01T11:21:59;18.80;;;3.40;;
62050;SDS011;48008;51.204;6.766;2023-01-01T11:24:27;10.85;;;2.95;;
62050;SDS011;48008;51.204;6.766;2023-01-01T11:27:26;13.40;;;3.05;;
62050;SDS011;48008;51.204;6.766;2023-01-01T11:29:45;13.90;;;2.95;;
62050;SDS011;48008;51.204;6.766;2023-01-01T11:32:16;16.40;;;2.97;;
62050;SDS011;48008;51.204;6.766;2023-01-01T11:34:47;15.48;;;3.00;;
62050;SDS011;48008;51.204;6.766;2023-01-01T11:37:25;13.80;;;2.95;;
62050;SDS011;48008;51.204;6.766;2023-01-01T11:39:55;12.10;;;3.00;;
62050;SDS011;48008;51.204;6.766;2023-01-01T11:42:24;17.65;;;3.42;;
62050;SDS011;48008;51.204;6.766;2023-01-01T11:44:54;14.30;;;3.45;;
62050;SDS011;48008;51.204;6.766;2023-01-01T11:50:07;20.95;;;3.08;;
62050;SDS011;48008;51.204;6.766;2023-01-01T11:52:50;15.82;;;3.35;;
62050;SDS011;48008;51.204;6.766;2023-01-01T11:55:23;15.75;;;3.50;;
62050;SDS011;48008;51.204;6.766;2023-01-01T11:58:08;16.15;;;3.40;;
62050;SDS011;48008;51.204;6.766;2023-01-01T12:00:58;14.38;;;2.97;;
62050;SDS011;48008;51.204;6.766;2023-01-01T12:06:10;14.57;;;2.60;;
62050;SDS011;48008;51.204;6.766;2023-01-01T12:08:50;23.42;;;4.03;;
62050;SDS011;48008;51.204;6.766;2023-01-01T12:11:37;23.95;;;5.85;;
62050;SDS011;48008;51.204;6.766;2023-01-01T12:14:34;17.17;;;4.80;;
62050;SDS011;48008;51.204;6.766;2023-01-01T12:17:13;14.43;;;2.63;;
62050;SDS011;48008;51.204;6.766;2023-01-01T12:20:02;18.60;;;3.00;;
62050;SDS011;48008;51.204;6.766;2023-01-01T12:22:36;15.63;;;3.03;;
62050;SDS011;48008;51.204;6.766;2023-01-01T12:25:05;12.30;;;2.60;;
62050;SDS011;48008;51.204;6.766;2023-01-01T12:30:19;16.70;;;3.00;;
62050;SDS011;48008;51.204;6.766;2023-01-01T12:38:55;16.25;;;2.67;;
62050;SDS011;48008;51.204;6.766;2023-01-01T12:44:44;12.93;;;2.53;;
62050;SDS011;48008;51.204;6.766;2023-01-01T12:47:41;10.35;;;2.50;;
62050;SDS011;48008;51.204;6.766;2023-01-01T12:50:22;10.43;;;2.70;;
62050;SDS011;48008;51.204;6.766;2023-01-01T12:53:23;12.40;;;3.00;;
62050;SDS011;48008;51.204;6.766;2023-01-01T12:56:10;15.35;;;2.80;;
62050;SDS011;48008;51.204;6.766;2023-01-01T12:58:46;15.18;;;2.85;;
62050;SDS011;48008;51.204;6.766;2023-01-01T13:01:18;14.57;;;2.83;;
62050;SDS011;48008;51.204;6.766;2023-01-01T13:03:53;12.35;;;2.83;;
62050;SDS011;48008;51.204;6.766;2023-01-01T13:09:21;20.40;;;4.10;;
62050;SDS011;48008;51.204;6.766;2023-01-01T13:11:52;13.52;;;2.85;;
62050;SDS011;48008;51.204;6.766;2023-01-01T13:14:25;17.55;;;3.17;;
62050;SDS011;48008;51.204;6.766;2023-01-01T13:16:52;16.83;;;3.22;;
62050;SDS011;48008;51.204;6.766;2023-01-01T13:19:25;14.90;;;3.00;;
62050;SDS011;48008;51.204;6.766;2023-01-01T13:21:58;14.35;;;2.55;;
62050;SDS011;48008;51.204;6.766;2023-01-01T13:25:18;20.77;;;3.55;;
62050;SDS011;48008;51.204;6.766;2023-01-01T13:28:01;15.15;;;2.85;;
62050;SDS011;48008;51.204;6.766;2023-01-01T13:33:23;16.65;;;2.90;;
62050;SDS011;48008;51.204;6.766;2023-01-01T13:38:48;17.98;;;2.88;;
62050;SDS011;48008;51.204;6.766;2023-01-01T13:47:03;15.55;;;2.97;;
62050;SDS011;48008;51.204;6.766;2023-01-01T13:50:03;13.57;;;2.95;;
62050;SDS011;48008;51.204;6.766;2023-01-01T13:55:33;19.45;;;3.17;;
62050;SDS011;48008;51.204;6.766;2023-01-01T14:03:50;16.80;;;3.00;;
62050;SDS011;48008;51.204;6.766;2023-01-01T14:06:24;17.65;;;3.13;;
62050;SDS011;48008;51.204;6.766;2023-01-01T14:09:02;20.50;;;3.40;;
62050;SDS011;48008;51.204;6.766;2023-01-01T14:11:32;17.45;;;3.20;;
62050;SDS011;48008;51.204;6.766;2023-01-01T14:13:58;15.52;;;3.65;;
62050;SDS011;48008;51.204;6.766;2023-01-01T14:16:25;18.75;;;3.22;;
62050;SDS011;48008;51.204;6.766;2023-01-01T14:18:54;20.60;;;3.33;;
62050;SDS011;48008;51.204;6.766;2023-01-01T14:21:24;17.15;;;3.40;;
62050;SDS011;48008;51.204;6.766;2023-01-01T14:23:55;13.80;;;3.13;;
62050;SDS011;48008;51.204;6.766;2023-01-01T14:26:25;15.57;;;3.05;;
62050;SDS011;48008;51.204;6.766;2023-01-01T14:28:54;13.52;;;3.20;;
62050;SDS011;48008;51.204;6.766;2023-01-01T14:31:25;17.35;;;3.03;;
62050;SDS011;48008;51.204;6.766;2023-01-01T14:33:55;16.63;;;3.50;;
62050;SDS011;48008;51.204;6.766;2023-01-01T14:36:23;15.93;;;3.03;;
62050;SDS011;48008;51.204;6.766;2023-01-01T14:38:54;16.83;;;3.70;;
62050;SDS011;48008;51.204;6.766;2023-01-01T14:41:38;16.27;;;3.47;;
62050;SDS011;48008;51.204;6.766;2023-01-01T14:44:11;19.90;;;3.47;;
62050;SDS011;48008;51.204;6.766;2023-01-01T14:46:40;17.08;;;3.50;;
62050;SDS011;48008;51.204;6.766;2023-01-01T14:49:10;16.63;;;3.30;;
62050;SDS011;48008;51.204;6.766;2023-01-01T14:51:45;15.63;;;3.35;;
62050;SDS011;48008;51.204;6.766;2023-01-01T14:54:16;12.18;;;3.88;;
62050;SDS011;48008;51.204;6.766;2023-01-01T14:56:46;18.90;;;4.05;;
62050;SDS011;48008;51.204;6.766;2023-01-01T14:59:20;16.65;;;3.53;;
62050;SDS011;48008;51.204;6.766;2023-01-01T15:02:22;16.05;;;3.50;;
62050;SDS011;48008;51.204;6.766;2023-01-01T15:04:39;15.15;;;3.60;;
62050;SDS011;48008;51.204;6.766;2023-01-01T15:07:18;17.38;;;4.20;;
62050;SDS011;48008;51.204;6.766;2023-01-01T15:09:47;21.60;;;3.67;;
62050;SDS011;48008;51.204;6.766;2023-01-01T15:12:15;17.95;;;3.90;;
62050;SDS011;48008;51.204;6.766;2023-01-01T15:14:43;16.27;;;3.58;;
62050;SDS011;48008;51.204;6.766;2023-01-01T15:17:12;16.83;;;4.00;;
62050;SDS011;48008;51.204;6.766;2023-01-01T15:19:43;21.63;;;4.63;;
62050;SDS011;48008;51.204;6.766;2023-01-01T15:22:23;26.25;;;4.70;;
62050;SDS011;48008;51.204;6.766;2023-01-01T15:24:52;18.83;;;4.95;;
62050;SDS011;48008;51.204;6.766;2023-01-01T15:27:21;25.52;;;5.40;;
62050;SDS011;48008;51.204;6.766;2023-01-01T15:29:50;23.00;;;4.50;;
62050;SDS011;48008;51.204;6.766;2023-01-01T15:32:26;16.42;;;4.80;;
62050;SDS011;48008;51.204;6.766;2023-01-01T15:34:56;17.25;;;4.45;;
62050;SDS011;48008;51.204;6.766;2023-01-01T15:37:33;19.63;;;4.25;;
62050;SDS011;48008;51.204;6.766;2023-01-01T15:45:38;19.00;;;3.92;;
62050;SDS011;48008;51.204;6.766;2023-01-01T15:48:16;23.35;;;4.18;;
62050;SDS011;48008;51.204;6.766;2023-01-01T15:53:25;14.88;;;3.88;;
62050;SDS011;48008;51.204;6.766;2023-01-01T15:55:55;14.23;;;3.53;;
62050;SDS011;48008;51.204;6.766;2023-01-01T15:58:33;16.42;;;3.78;;
62050;SDS011;48008;51.204;6.766;2023-01-01T16:01:05;18.33;;;4.10;;
62050;SDS011;48008;51.204;6.766;2023-01-01T16:06:03;13.52;;;3.45;;
62050;SDS011;48008;51.204;6.766;2023-01-01T16:08:30;14.25;;;4.15;;
62050;SDS011;48008;51.204;6.766;2023-01-01T16:10:57;14.07;;;3.45;;
62050;SDS011;48008;51.204;6.766;2023-01-01T16:13:24;12.73;;;3.55;;
62050;SDS011;48008;51.204;6.766;2023-01-01T16:15:51;14.82;;;3.55;;
62050;SDS011;48008;51.204;6.766;2023-01-01T16:18:23;13.30;;;3.88;;
62050;SDS011;48008;51.204;6.766;2023-01-01T16:23:21;16.23;;;4.28;;